createdAt,value
2022-10-22T00:02:27.839Z,1.08
2022-10-22T00:04:57.033Z,1.50
2022-10-22T00:07:24.283Z,1.35
2022-10-22T00:09:51.214Z,1.60
2022-10-22T00:12:18.745Z,1.95
2022-10-22T00:14:45.517Z,2.22
2022-10-22T00:17:12.318Z,2.00
2022-10-22T00:19:40.047Z,1.38
2022-10-22T00:22:08.468Z,3.08
2022-10-22T00:24:37.130Z,2.60
2022-10-22T00:27:05.375Z,2.50
2022-10-22T00:29:32.348Z,1.63
2022-10-22T00:31:59.363Z,2.15
2022-10-22T00:34:26.461Z,1.60
2022-10-22T00:36:53.718Z,1.63
2022-10-22T00:39:23.341Z,1.10
2022-10-22T00:41:51.945Z,1.60
2022-10-22T00:44:56.297Z,1.63
2022-10-22T00:47:24.586Z,1.40
2022-10-22T00:49:53.021Z,1.80
2022-10-22T00:52:21.176Z,1.77
2022-10-22T00:54:48.111Z,1.95
2022-10-22T00:57:16.853Z,1.58
2022-10-22T00:59:43.668Z,1.02
2022-10-22T01:02:10.480Z,1.77
2022-10-22T01:04:37.409Z,1.30
2022-10-22T01:07:04.517Z,2.38
2022-10-22T01:09:49.434Z,1.88
2022-10-22T01:12:33.282Z,1.50
2022-10-22T01:15:23.638Z,1.42
2022-10-22T01:17:57.856Z,1.52
2022-10-22T01:20:36.694Z,2.30
2022-10-22T01:23:43.489Z,1.40
2022-10-22T01:26:56.985Z,1.27
2022-10-22T01:29:50.086Z,1.63
2022-10-22T01:32:23.342Z,2.05
2022-10-22T01:35:00.144Z,1.88
2022-10-22T01:37:30.625Z,1.67
2022-10-22T01:40:00.371Z,2.08
2022-10-22T01:42:27.247Z,1.20
2022-10-22T01:44:54.175Z,1.60
2022-10-22T01:47:44.009Z,1.73
2022-10-22T01:50:45.260Z,2.05
2022-10-22T01:53:29.939Z,1.77
2022-10-22T01:56:42.790Z,1.30
2022-10-22T01:59:24.647Z,1.10
2022-10-22T02:01:54.806Z,2.00
2022-10-22T02:04:38.570Z,2.10
2022-10-22T02:07:08.899Z,1.90
2022-10-22T02:09:36.586Z,1.70
2022-10-22T02:12:06.732Z,2.67
2022-10-22T02:14:37.079Z,2.70
2022-10-22T02:17:06.097Z,1.58
2022-10-22T02:19:48.433Z,1.75
2022-10-22T02:22:15.351Z,1.58
2022-10-22T02:24:42.277Z,1.58
2022-10-22T02:27:26.941Z,3.40
2022-10-22T02:33:07.435Z,1.30
2022-10-22T02:35:35.158Z,1.27
2022-10-22T02:38:03.396Z,1.20
2022-10-22T02:40:32.072Z,1.10
2022-10-22T02:42:58.958Z,1.52
2022-10-22T02:45:26.227Z,1.30
2022-10-22T02:47:53.044Z,1.42
2022-10-22T02:50:19.811Z,1.17
2022-10-22T02:52:46.622Z,0.95
2022-10-22T02:55:13.661Z,1.10
2022-10-22T02:57:40.699Z,1.95
2022-10-22T03:00:09.179Z,1.00
2022-10-22T03:02:36.006Z,1.52
2022-10-22T03:05:03.756Z,1.55
2022-10-22T03:07:30.566Z,1.33
2022-10-22T03:09:57.355Z,1.50
2022-10-22T03:12:24.359Z,1.55
2022-10-22T03:14:51.112Z,1.83
2022-10-22T03:17:17.926Z,1.20
2022-10-22T03:19:44.718Z,1.50
2022-10-22T03:22:17.675Z,1.35
2022-10-22T03:24:50.862Z,0.80
2022-10-22T03:27:20.100Z,1.08
2022-10-22T03:29:48.133Z,0.85
2022-10-22T03:32:14.949Z,0.90
2022-10-22T03:34:41.754Z,0.70
2022-10-22T03:37:08.581Z,0.57
2022-10-22T03:39:36.952Z,1.10
2022-10-22T03:42:05.512Z,1.27
2022-10-22T03:44:33.024Z,0.82
2022-10-22T03:47:02.480Z,2.50
2022-10-22T03:49:29.765Z,1.45
2022-10-22T03:51:56.574Z,1.20
2022-10-22T03:54:23.357Z,1.08
2022-10-22T03:56:50.164Z,2.03
2022-10-22T03:59:16.951Z,1.08
2022-10-22T04:01:43.735Z,1.05
2022-10-22T04:04:10.552Z,0.80
2022-10-22T04:06:37.362Z,1.00
2022-10-22T04:09:04.324Z,1.33
2022-10-22T04:11:31.131Z,1.98
2022-10-22T04:13:57.958Z,2.80
2022-10-22T04:16:27.397Z,1.50
2022-10-22T04:18:57.051Z,1.83
2022-10-22T04:21:23.842Z,1.55
2022-10-22T04:23:52.581Z,1.10
2022-10-22T04:26:20.345Z,0.95
2022-10-22T04:28:48.732Z,1.88
2022-10-22T04:31:18.125Z,2.78
2022-10-22T04:33:45.429Z,1.55
2022-10-22T04:36:17.961Z,1.50
2022-10-22T04:38:46.267Z,1.30
2022-10-22T04:41:15.690Z,1.08
2022-10-22T04:43:42.982Z,1.25
2022-10-22T04:46:11.104Z,2.20
2022-10-22T04:48:39.980Z,1.73
2022-10-22T04:51:09.128Z,2.63
2022-10-22T04:53:36.307Z,1.77
2022-10-22T04:56:21.737Z,1.40
2022-10-22T04:58:50.957Z,1.33
2022-10-22T05:01:29.439Z,2.55
2022-10-22T05:03:58.431Z,1.63
2022-10-22T05:06:26.012Z,1.45
2022-10-22T05:08:55.152Z,1.33
2022-10-22T05:11:24.352Z,2.33
2022-10-22T05:13:51.329Z,1.60
2022-10-22T05:16:18.147Z,1.00
2022-10-22T05:18:45.726Z,1.08
2022-10-22T05:21:18.808Z,1.92
2022-10-22T05:23:47.111Z,1.73
2022-10-22T05:26:16.296Z,1.90
2022-10-22T05:28:43.050Z,1.83
2022-10-22T05:31:12.725Z,2.53
2022-10-22T05:33:40.323Z,1.33
2022-10-22T05:36:08.685Z,1.88
2022-10-22T05:38:35.885Z,1.80
2022-10-22T05:41:09.032Z,2.10
2022-10-22T05:43:36.586Z,2.78
2022-10-22T05:46:09.134Z,2.53
2022-10-22T05:51:11.485Z,2.08
2022-10-22T05:53:40.658Z,1.42
2022-10-22T05:56:12.878Z,2.17
2022-10-22T05:58:39.830Z,2.42
2022-10-22T06:01:12.882Z,1.73
2022-10-22T06:03:39.754Z,1.90
2022-10-22T06:06:40.844Z,1.50
2022-10-22T06:09:25.193Z,1.20
2022-10-22T06:11:52.767Z,2.45
2022-10-22T06:14:20.408Z,2.25
2022-10-22T06:16:47.461Z,2.28
2022-10-22T06:19:16.214Z,2.53
2022-10-22T06:21:43.322Z,1.63
2022-10-22T06:24:10.843Z,2.97
2022-10-22T06:26:37.912Z,2.97
2022-10-22T06:29:05.520Z,2.08
2022-10-22T06:31:38.521Z,3.47
2022-10-22T06:34:07.607Z,2.00
2022-10-22T06:36:34.990Z,2.20
2022-10-22T06:39:01.945Z,2.88
2022-10-22T06:41:29.616Z,2.08
2022-10-22T06:43:57.448Z,3.78
2022-10-22T06:46:26.134Z,2.03
2022-10-22T06:48:56.145Z,2.72
2022-10-22T06:51:23.349Z,2.85
2022-10-22T06:53:50.392Z,3.40
2022-10-22T06:56:19.648Z,2.25
2022-10-22T06:58:50.969Z,4.15
2022-10-22T07:01:19.945Z,2.70
2022-10-22T07:03:46.929Z,2.75
2022-10-22T07:06:15.064Z,2.92
2022-10-22T07:08:42.399Z,3.22
2022-10-22T07:11:16.501Z,2.20
2022-10-22T07:13:43.981Z,3.47
2022-10-22T07:16:11.149Z,4.18
2022-10-22T07:18:39.476Z,3.47
2022-10-22T07:21:07.793Z,2.63
2022-10-22T07:23:34.647Z,3.33
2022-10-22T07:26:06.678Z,2.38
2022-10-22T07:28:39.802Z,3.05
2022-10-22T07:31:08.489Z,2.10
2022-10-22T07:33:35.740Z,3.00
2022-10-22T07:36:05.902Z,3.13
2022-10-22T07:38:33.013Z,2.65
2022-10-22T07:41:00.432Z,2.70
2022-10-22T07:43:27.322Z,2.95
2022-10-22T07:45:55.921Z,2.47
2022-10-22T07:48:24.030Z,2.17
2022-10-22T07:50:51.847Z,3.03
2022-10-22T07:53:18.815Z,3.30
2022-10-22T07:55:49.417Z,2.33
2022-10-22T07:58:17.746Z,3.28
2022-10-22T08:00:45.158Z,2.72
2022-10-22T08:03:12.945Z,2.50
2022-10-22T08:05:40.174Z,2.80
2022-10-22T08:08:07.498Z,2.10
2022-10-22T08:10:34.978Z,1.80
2022-10-22T08:13:02.198Z,2.38
2022-10-22T08:15:29.393Z,2.00
2022-10-22T08:17:56.186Z,2.80
2022-10-22T08:20:23.276Z,2.88
2022-10-22T08:22:50.079Z,3.03
2022-10-22T08:25:18.258Z,3.67
2022-10-22T08:27:45.867Z,4.30
2022-10-22T08:30:14.182Z,4.18
2022-10-22T08:32:41.862Z,2.17
2022-10-22T08:35:09.425Z,3.20
2022-10-22T08:37:37.443Z,3.00
2022-10-22T08:40:05.795Z,2.45
2022-10-22T08:42:41.299Z,1.75
2022-10-22T08:45:26.941Z,2.47
2022-10-22T08:48:19.008Z,2.53
2022-10-22T08:50:56.782Z,2.28
2022-10-22T08:53:42.463Z,2.88
2022-10-22T08:56:09.317Z,2.30
2022-10-22T08:59:05.963Z,3.17
2022-10-22T09:01:40.323Z,4.38
2022-10-22T09:04:32.617Z,2.35
2022-10-22T09:07:00.470Z,2.90
2022-10-22T09:09:33.175Z,3.15
2022-10-22T09:12:01.164Z,3.03
2022-10-22T09:14:29.920Z,2.35
2022-10-22T09:17:12.883Z,1.92
2022-10-22T09:19:54.793Z,2.22
2022-10-22T09:22:21.627Z,3.00
2022-10-22T09:24:52.550Z,2.40
2022-10-22T09:27:28.332Z,2.22
2022-10-22T09:29:55.175Z,1.83
2022-10-22T09:32:22.233Z,2.33
2022-10-22T09:34:50.479Z,2.58
2022-10-22T09:37:19.987Z,3.92
2022-10-22T09:39:53.066Z,2.42
2022-10-22T09:42:21.092Z,2.13
2022-10-22T09:44:54.466Z,2.38
2022-10-22T09:47:42.630Z,1.88
2022-10-22T09:50:26.745Z,2.78
2022-10-22T09:53:13.596Z,1.92
2022-10-22T09:55:42.949Z,2.63
2022-10-22T09:58:13.997Z,2.60
2022-10-22T10:00:43.792Z,3.80
2022-10-22T10:03:22.358Z,2.88
2022-10-22T10:05:55.066Z,2.15
2022-10-22T10:08:23.260Z,2.70
2022-10-22T10:10:54.015Z,2.92
2022-10-22T10:13:26.647Z,2.28
2022-10-22T10:19:05.096Z,2.78
2022-10-22T10:22:02.581Z,2.10
2022-10-22T10:24:59.224Z,2.00
2022-10-22T10:27:35.701Z,2.95
2022-10-22T10:30:21.729Z,2.10
2022-10-22T10:33:07.424Z,2.17
2022-10-22T10:35:58.626Z,2.38
2022-10-22T10:38:45.931Z,2.05
2022-10-22T10:41:44.377Z,2.15
2022-10-22T10:44:11.235Z,2.20
2022-10-22T10:46:58.060Z,2.22
2022-10-22T10:49:27.124Z,2.70
2022-10-22T10:52:06.862Z,3.17
2022-10-22T10:54:45.953Z,1.70
2022-10-22T10:57:32.715Z,1.90
2022-10-22T11:00:20.119Z,2.25
2022-10-22T11:02:52.934Z,2.00
2022-10-22T11:05:42.090Z,3.15
2022-10-22T11:08:25.034Z,2.38
2022-10-22T11:11:12.150Z,2.17
2022-10-22T11:14:06.443Z,2.45
2022-10-22T11:16:46.181Z,2.75
2022-10-22T11:19:49.623Z,2.92
2022-10-22T11:22:44.506Z,3.20
2022-10-22T11:25:25.048Z,2.17
2022-10-22T11:28:07.747Z,3.35
2022-10-22T11:30:37.674Z,1.48
2022-10-22T11:33:15.063Z,3.00
2022-10-22T11:35:44.829Z,2.15
2022-10-22T11:38:22.368Z,2.35
2022-10-22T11:40:59.648Z,2.42
2022-10-22T11:43:37.838Z,2.72
2022-10-22T11:46:16.821Z,2.72
2022-10-22T11:48:44.430Z,2.85
2022-10-22T11:51:33.004Z,2.22
2022-10-22T11:54:21.966Z,2.63
2022-10-22T11:56:57.567Z,2.63
2022-10-22T12:00:01.421Z,2.70
2022-10-22T12:02:28.170Z,2.08
2022-10-22T12:05:34.756Z,1.90
2022-10-22T12:08:23.350Z,2.00
2022-10-22T12:11:00.219Z,2.08
2022-10-22T12:13:30.765Z,3.17
2022-10-22T12:16:01.782Z,1.80
2022-10-22T12:18:38.698Z,1.90
2022-10-22T12:21:05.700Z,1.55
2022-10-22T12:23:35.044Z,1.35
2022-10-22T12:26:05.033Z,2.47
2022-10-22T12:28:41.022Z,1.88
2022-10-22T12:31:16.684Z,2.85
2022-10-22T12:33:43.914Z,1.80
2022-10-22T12:36:19.722Z,1.17
2022-10-22T12:38:47.273Z,1.65
2022-10-22T12:41:14.312Z,2.97
2022-10-22T12:43:41.347Z,2.05
2022-10-22T12:46:16.447Z,2.47
2022-10-22T12:48:45.466Z,1.30
2022-10-22T12:51:19.901Z,1.50
2022-10-22T12:53:53.016Z,2.58
2022-10-22T12:56:26.262Z,2.58
2022-10-22T12:58:56.633Z,1.65
2022-10-22T13:01:27.456Z,1.25
2022-10-22T13:04:13.150Z,2.70
2022-10-22T13:06:45.493Z,1.90
2022-10-22T13:09:25.226Z,1.75
2022-10-22T13:12:04.798Z,2.03
2022-10-22T13:14:34.408Z,1.70
2022-10-22T13:17:16.230Z,2.30
2022-10-22T13:20:05.496Z,1.40
2022-10-22T13:22:40.971Z,2.03
2022-10-22T13:25:17.253Z,1.95
2022-10-22T13:27:45.934Z,1.83
2022-10-22T13:30:30.198Z,1.30
2022-10-22T13:32:58.789Z,2.45
2022-10-22T13:35:32.588Z,2.17
2022-10-22T13:38:00.438Z,2.20
2022-10-22T13:40:27.905Z,2.10
2022-10-22T13:42:54.830Z,1.85
2022-10-22T13:45:21.793Z,2.28
2022-10-22T13:47:52.809Z,1.13
2022-10-22T13:50:21.167Z,1.80
2022-10-22T13:52:52.833Z,2.33
2022-10-22T13:55:30.778Z,1.47
2022-10-22T14:00:47.684Z,2.85
2022-10-22T14:03:18.456Z,1.40
2022-10-22T14:05:46.755Z,1.42
2022-10-22T14:08:17.076Z,1.60
2022-10-22T14:10:44.114Z,3.00
2022-10-22T14:13:12.471Z,1.27
2022-10-22T14:15:41.090Z,1.77
2022-10-22T14:18:08.651Z,1.88
2022-10-22T14:20:37.808Z,1.70
2022-10-22T14:25:44.334Z,2.17
2022-10-22T14:28:12.237Z,2.95
2022-10-22T14:30:40.141Z,1.65
2022-10-22T14:33:16.637Z,1.80
2022-10-22T14:35:43.736Z,2.03
2022-10-22T14:38:10.723Z,2.50
2022-10-22T14:40:41.946Z,2.38
2022-10-22T14:43:22.312Z,2.03
2022-10-22T14:45:49.785Z,1.60
2022-10-22T14:48:17.033Z,2.33
2022-10-22T14:50:45.366Z,1.52
2022-10-22T14:53:13.735Z,1.75
2022-10-22T14:55:41.373Z,1.63
2022-10-22T14:58:08.196Z,2.20
2022-10-22T15:00:36.896Z,2.00
2022-10-22T15:03:04.546Z,2.95
2022-10-22T15:05:31.464Z,2.28
2022-10-22T15:08:01.496Z,3.03
2022-10-22T15:10:28.498Z,2.42
2022-10-22T15:12:55.319Z,2.15
2022-10-22T15:15:23.179Z,1.85
2022-10-22T15:17:50.602Z,2.45
2022-10-22T15:20:17.506Z,2.13
2022-10-22T15:22:45.351Z,1.80
2022-10-22T15:25:13.659Z,2.15
2022-10-22T15:27:40.573Z,1.85
2022-10-22T15:30:08.611Z,2.28
2022-10-22T15:32:35.455Z,2.05
2022-10-22T15:35:02.339Z,1.73
2022-10-22T15:37:29.171Z,2.22
2022-10-22T15:39:56.000Z,1.83
2022-10-22T15:42:23.891Z,2.42
2022-10-22T15:44:57.997Z,2.30
2022-10-22T15:47:29.725Z,2.47
2022-10-22T15:49:56.721Z,2.95
2022-10-22T15:52:23.607Z,2.50
2022-10-22T15:54:50.423Z,2.85
2022-10-22T15:57:17.335Z,3.20
2022-10-22T15:59:44.341Z,3.55
2022-10-22T16:02:11.826Z,2.10
2022-10-22T16:04:39.254Z,2.55
2022-10-22T16:07:06.962Z,2.50
2022-10-22T16:09:33.802Z,1.88
2022-10-22T16:12:00.604Z,2.45
2022-10-22T16:14:28.750Z,1.92
2022-10-22T16:16:56.628Z,2.65
2022-10-22T16:19:24.694Z,2.53
2022-10-22T16:21:53.831Z,2.47
2022-10-22T16:24:21.415Z,3.95
2022-10-22T16:26:49.038Z,3.08
2022-10-22T16:29:16.543Z,2.88
2022-10-22T16:31:44.067Z,3.65
2022-10-22T16:34:11.644Z,2.35
2022-10-22T16:36:39.600Z,2.83
2022-10-22T16:39:06.646Z,2.00
2022-10-22T16:41:35.408Z,2.67
2022-10-22T16:44:05.578Z,2.60
2022-10-22T16:46:33.428Z,2.60
2022-10-22T16:49:00.472Z,2.70
2022-10-22T16:51:28.588Z,2.97
2022-10-22T16:53:57.260Z,2.97
2022-10-22T16:56:25.178Z,3.97
2022-10-22T16:58:55.021Z,2.72
2022-10-22T17:01:25.925Z,2.30
2022-10-22T17:03:54.749Z,3.83
2022-10-22T17:06:23.685Z,3.28
2022-10-22T17:08:50.630Z,2.25
2022-10-22T17:11:20.767Z,2.65
2022-10-22T17:13:49.624Z,2.13
2022-10-22T17:16:18.945Z,1.65
2022-10-22T17:21:19.724Z,2.55
2022-10-22T17:23:47.209Z,2.15
2022-10-22T17:26:20.916Z,1.77
2022-10-22T17:28:48.556Z,2.28
2022-10-22T17:31:26.199Z,3.05
2022-10-22T17:33:55.520Z,2.70
2022-10-22T17:36:24.306Z,2.60
2022-10-22T17:38:56.522Z,2.25
2022-10-22T17:41:26.131Z,3.10
2022-10-22T17:43:53.158Z,2.50
2022-10-22T17:46:25.329Z,2.58
2022-10-22T17:48:54.790Z,2.22
2022-10-22T17:51:22.834Z,3.08
2022-10-22T17:53:50.740Z,2.30
2022-10-22T17:56:29.843Z,2.65
2022-10-22T17:58:56.909Z,2.60
2022-10-22T18:01:29.822Z,3.05
2022-10-22T18:04:01.038Z,3.60
2022-10-22T18:06:29.011Z,3.45
2022-10-22T18:08:56.028Z,2.50
2022-10-22T18:11:25.715Z,2.80
2022-10-22T18:13:54.791Z,2.85
2022-10-22T18:16:21.875Z,2.92
2022-10-22T18:18:50.317Z,2.30
2022-10-22T18:21:18.202Z,2.65
2022-10-22T18:23:45.932Z,2.85
2022-10-22T18:26:15.203Z,3.35
2022-10-22T18:28:42.329Z,3.60
2022-10-22T18:31:12.818Z,2.90
2022-10-22T18:33:40.578Z,2.35
2022-10-22T18:36:10.767Z,2.70
2022-10-22T18:38:40.758Z,2.88
2022-10-22T18:41:10.142Z,2.08
2022-10-22T18:43:37.162Z,3.10
2022-10-22T18:46:07.058Z,3.17
2022-10-22T18:48:35.434Z,2.70
2022-10-22T18:51:07.736Z,4.75
2022-10-22T18:53:36.236Z,4.13
2022-10-22T18:56:06.306Z,3.53
2022-10-22T18:58:41.485Z,3.53
2022-10-22T19:01:17.477Z,3.30
2022-10-22T19:03:44.669Z,3.83
2022-10-22T19:06:14.418Z,3.80
2022-10-22T19:08:41.607Z,3.22
2022-10-22T19:11:14.361Z,3.90
2022-10-22T19:13:42.134Z,4.82
2022-10-22T19:16:11.737Z,6.32
2022-10-22T19:18:38.787Z,7.68
2022-10-22T19:21:06.137Z,5.93
2022-10-22T19:23:32.974Z,6.18
2022-10-22T19:26:04.731Z,5.32
2022-10-22T19:28:32.299Z,4.17
2022-10-22T19:31:00.064Z,3.47
2022-10-22T19:33:27.963Z,2.97
2022-10-22T19:35:54.848Z,3.20
2022-10-22T19:38:21.716Z,3.25
2022-10-22T19:40:48.549Z,2.75
2022-10-22T19:43:18.863Z,2.65
2022-10-22T19:45:45.970Z,3.65
2022-10-22T19:48:12.749Z,3.65
2022-10-22T19:50:39.556Z,3.28
2022-10-22T19:53:06.377Z,2.83
2022-10-22T19:55:33.220Z,2.15
2022-10-22T19:58:00.373Z,3.15
2022-10-22T20:00:29.383Z,2.42
2022-10-22T20:02:56.198Z,3.03
2022-10-22T20:07:54.694Z,3.10
2022-10-22T20:10:21.622Z,4.60
2022-10-22T20:12:48.466Z,5.82
2022-10-22T20:15:17.001Z,5.47
2022-10-22T20:17:44.024Z,4.32
2022-10-22T20:20:11.062Z,4.07
2022-10-22T20:22:37.852Z,4.90
2022-10-22T20:25:05.340Z,3.78
2022-10-22T20:27:32.103Z,3.13
2022-10-22T20:29:58.886Z,2.83
2022-10-22T20:32:27.196Z,2.95
2022-10-22T20:34:54.607Z,2.33
2022-10-22T20:37:21.372Z,2.30
2022-10-22T20:39:49.774Z,2.22
2022-10-22T20:42:17.122Z,3.03
2022-10-22T20:44:44.110Z,3.17
2022-10-22T20:47:13.257Z,4.28
2022-10-22T20:49:40.182Z,3.08
2022-10-22T20:52:07.070Z,4.00
2022-10-22T20:54:34.741Z,3.42
2022-10-22T20:57:01.543Z,3.38
2022-10-22T20:59:32.935Z,3.42
2022-10-22T21:02:00.957Z,2.63
2022-10-22T21:04:28.635Z,3.15
2022-10-22T21:06:57.206Z,2.78
2022-10-22T21:09:25.214Z,3.67
2022-10-22T21:11:56.013Z,3.58
2022-10-22T21:14:23.398Z,3.65
2022-10-22T21:16:51.522Z,2.90
2022-10-22T21:19:19.691Z,2.58
2022-10-22T21:21:46.523Z,2.45
2022-10-22T21:24:13.357Z,2.97
2022-10-22T21:26:41.840Z,2.30
2022-10-22T21:29:09.760Z,3.13
2022-10-22T21:31:39.405Z,2.70
2022-10-22T21:34:06.215Z,2.45
2022-10-22T21:36:33.143Z,2.83
2022-10-22T21:39:02.159Z,2.53
2022-10-22T21:41:29.010Z,2.50
2022-10-22T21:43:55.908Z,2.42
2022-10-22T21:46:25.336Z,2.70
2022-10-22T21:49:03.430Z,2.20
2022-10-22T21:51:32.619Z,3.28
2022-10-22T21:54:00.183Z,2.38
2022-10-22T21:56:30.526Z,2.47
2022-10-22T21:58:57.379Z,2.20
2022-10-22T22:01:24.584Z,3.05
2022-10-22T22:03:52.477Z,1.88
2022-10-22T22:06:22.023Z,1.50
2022-10-22T22:08:49.660Z,2.20
2022-10-22T22:11:19.870Z,2.70
2022-10-22T22:13:48.743Z,2.13
2022-10-22T22:16:25.453Z,2.15
2022-10-22T22:18:56.296Z,2.42
2022-10-22T22:21:23.160Z,2.47
2022-10-22T22:23:50.706Z,3.30
2022-10-22T22:26:25.348Z,3.38
2022-10-22T22:28:55.886Z,2.42
2022-10-22T22:31:25.217Z,2.95
2022-10-22T22:34:00.161Z,2.25
2022-10-22T22:36:27.297Z,2.45
2022-10-22T22:38:56.078Z,2.20
2022-10-22T22:41:23.096Z,2.22
2022-10-22T22:43:50.131Z,2.22
2022-10-22T22:46:17.331Z,2.38
2022-10-22T22:48:44.268Z,2.25
2022-10-22T22:51:11.295Z,2.25
2022-10-22T22:53:38.287Z,2.30
2022-10-22T22:56:19.604Z,2.15
2022-10-22T22:58:46.852Z,2.10
2022-10-22T23:01:23.642Z,2.58
2022-10-22T23:03:59.386Z,2.10
2022-10-22T23:06:32.731Z,1.73
2022-10-22T23:09:00.036Z,2.35
2022-10-22T23:11:28.723Z,2.05
2022-10-22T23:13:59.444Z,1.67
2022-10-22T23:16:28.415Z,1.48
2022-10-22T23:18:55.855Z,2.10
2022-10-22T23:21:26.531Z,1.48
2022-10-22T23:23:56.232Z,1.85
2022-10-22T23:26:32.630Z,1.70
2022-10-22T23:29:27.137Z,2.40
2022-10-22T23:31:55.277Z,2.08
2022-10-22T23:34:24.526Z,2.22
2022-10-22T23:36:52.609Z,3.38
2022-10-22T23:39:21.722Z,1.85
2022-10-22T23:41:48.890Z,2.53
2022-10-22T23:44:15.961Z,2.55
2022-10-22T23:46:42.944Z,1.80
2022-10-22T23:49:10.983Z,2.50
2022-10-22T23:51:38.384Z,2.38
2022-10-22T23:54:07.278Z,3.13
2022-10-22T23:56:34.769Z,2.60
2022-10-22T23:59:01.686Z,1.85
